Terminal Aerodrome Forecast
Issued by NWS

Home | Current Version | Previous Version | Text Only | Print | Product List | Glossary Off
Versions: 1 2 3 4 5 6 7 8 9 10 11 12 13 14 15 16 17 18

214
FTUS43 KBIS 221123
TAFJMS
TAF
KJMS 221123Z 2212/2312 14014G23KT P6SM OVC060
     FM221600 15019G28KT P6SM OVC030
     FM221800 15021G30KT P6SM OVC040
     FM230300 16014KT P6SM BKN140
     FM230900 15011KT P6SM SCT110=

USA.gov is the U.S. government's official web portal to all federal, state and local government web resources and services.